Baltimore, MD

1:33 AM EDT on March 27, 2015 (GMT -0400)
Martin State | | Change Station
CLOSE
Current Station
Airport
Location: Baltimore Martin,
Elevation: 23 ft
Nearby Weather Stations

Elev 23 ft 39.32 °N, 76.41 °W | Updated 3 minutes ago

Rain
Rain
48 °F
Feels Like 48 °F
N
6
Wind Variable Wind from NW

Today
High -- | Low -- °F
--% Chance of Precip.
Yesterday
High -- | Low -- °F
Precip. -- in
6:59 AM 7:25 PM
Waxing Crescent, 49% visible
Pressure 29.78 in
Visibility 10.0 miles
Clouds Scattered Clouds 800 ft
Mostly Cloudy 1200 ft
Overcast 6500 ft
Dew Point 43 °F
Humidity 82%
Rainfall 0.02 in
Snow Depth Not available.
UV 0 out of 12
Pollen 7.60 out of 12
Air Quality Not available.
Flu Activity Not available.
METAR KMTN 270530Z AUTO 31005KT 10SM RA SCT008 BKN012 OVC065 09/06 A2978 RMK AO2 P0001

More Conditions Fewer Conditions

Pressure 29.78 in
Visibility 10.0 miles
Clouds Scattered Clouds 800 ft
Mostly Cloudy 1200 ft
Overcast 6500 ft
Dew Point 43 °F
Humidity 82%
Rainfall 0.02 in
Snow Depth Not available.
UV 0 out of 12
Pollen 7.60 out of 12
Air Quality Not available.
Flu Activity Not available.
METAR KMTN 270530Z AUTO 31005KT 10SM RA SCT008 BKN012 OVC065 09/06 A2978 RMK AO2 P0001

More Conditions Fewer Conditions

10-Day Weather Forecast

Almanac

Astronomy

Mar. 27, 2015 Rise Set
Actual Time
Civil Twilight
Nautical Twilight
Astronomical Twilight
Moon
Length of Visible Light
Length of Day
Tomorrow will be .
, % of the Moon is Illuminated

Today's Extremes

State Highs State Lows

Community

WunderPhotos

Upload Photos

1,808,698 photos uploaded!

WunderBlogs® & News

Nearby

Air Quality

  Air Quality AQ Index Pollutant
Not available.

Snow Depth

Station Depth Elevation

Earthquake Activity

City Distance Mag. Time & Date
Minimum magnitude displayed is 2.5.

Coastal Water Temperatures

Place Temperature

Stations

Nearby Weather Stations

Station Location Temp. Windchill Dew Point Humidity Wind Precip. Elev Updated Type